sensor_id;sensor_type;location;lat;lon;timestamp;pressure;altitude;pressure_sealevel;temperature;humidity
80798;BME280;70202;52.238;10.680;2024-01-10T00:00:56;101967.06;;;-4.83;76.02
80798;BME280;70202;52.238;10.680;2024-01-10T00:01:56;101813.16;;;-5.69;76.12
80798;BME280;70202;52.238;10.680;2024-01-10T00:02:56;101942.53;;;-4.95;76.05
80798;BME280;70202;52.238;10.680;2024-01-10T00:03:57;101918.19;;;-5.04;76.30
80798;BME280;70202;52.238;10.680;2024-01-10T00:04:57;101956.59;;;-4.80;76.43
80798;BME280;70202;52.238;10.680;2024-01-10T00:05:58;101827.94;;;-5.56;75.93
80798;BME280;70202;52.238;10.680;2024-01-10T00:06:58;101782.56;;;-5.79;75.87
80798;BME280;70202;52.238;10.680;2024-01-10T00:07:59;101959.09;;;-4.83;76.12
80798;BME280;70202;52.238;10.680;2024-01-10T00:08:59;101933.50;;;-4.98;76.12
80798;BME280;70202;52.238;10.680;2024-01-10T00:10:00;101961.69;;;-4.84;76.31
80798;BME280;70202;52.238;10.680;2024-01-10T00:11:01;101845.91;;;-5.50;75.76
80798;BME280;70202;52.238;10.680;2024-01-10T00:12:02;101967.81;;;-4.85;76.45
80798;BME280;70202;52.238;10.680;2024-01-10T00:13:02;101854.78;;;-5.50;76.51
80798;BME280;70202;52.238;10.680;2024-01-10T00:14:03;101958.88;;;-4.87;76.38
80798;BME280;70202;52.238;10.680;2024-01-10T00:15:05;101953.09;;;-4.96;76.38
80798;BME280;70202;52.238;10.680;2024-01-10T00:16:06;101757.16;;;-6.09;76.09
80798;BME280;70202;52.238;10.680;2024-01-10T00:17:06;101769.25;;;-5.98;76.29
80798;BME280;70202;52.238;10.680;2024-01-10T00:18:07;101757.72;;;-5.98;76.28
80798;BME280;70202;52.238;10.680;2024-01-10T00:19:08;101941.63;;;-4.95;76.40
80798;BME280;70202;52.238;10.680;2024-01-10T00:20:08;101829.06;;;-5.69;76.68
80798;BME280;70202;52.238;10.680;2024-01-10T00:21:10;101953.47;;;-4.89;76.34
80798;BME280;70202;52.238;10.680;2024-01-10T00:22:10;101742.81;;;-6.13;76.52
80798;BME280;70202;52.238;10.680;2024-01-10T00:23:11;101955.38;;;-4.86;76.38
80798;BME280;70202;52.238;10.680;2024-01-10T00:24:11;101954.47;;;-4.87;76.62
80798;BME280;70202;52.238;10.680;2024-01-10T00:25:11;101796.44;;;-5.84;76.65
80798;BME280;70202;52.238;10.680;2024-01-10T00:26:13;101932.75;;;-4.96;76.53
80798;BME280;70202;52.238;10.680;2024-01-10T00:27:13;101912.53;;;-5.10;76.60
80798;BME280;70202;52.238;10.680;2024-01-10T00:28:14;101950.97;;;-4.86;76.89
80798;BME280;70202;52.238;10.680;2024-01-10T00:29:16;101953.63;;;-4.86;76.86
80798;BME280;70202;52.238;10.680;2024-01-10T00:30:17;101836.81;;;-5.56;76.60
80798;BME280;70202;52.238;10.680;2024-01-10T00:31:17;101949.16;;;-4.87;76.46
80798;BME280;70202;52.238;10.680;2024-01-10T00:32:18;101944.69;;;-4.88;76.84
80798;BME280;70202;52.238;10.680;2024-01-10T00:33:18;101844.31;;;-5.47;76.29
80798;BME280;70202;52.238;10.680;2024-01-10T00:34:18;101856.38;;;-5.54;76.70
80798;BME280;70202;52.238;10.680;2024-01-10T00:35:19;101929.09;;;-4.98;76.61
80798;BME280;70202;52.238;10.680;2024-01-10T00:36:19;101944.50;;;-4.91;76.85
80798;BME280;70202;52.238;10.680;2024-01-10T00:37:20;101934.50;;;-4.96;76.57
80798;BME280;70202;52.238;10.680;2024-01-10T00:38:20;101840.38;;;-5.55;76.61
80798;BME280;70202;52.238;10.680;2024-01-10T00:39:21;101710.53;;;-6.22;76.42
80798;BME280;70202;52.238;10.680;2024-01-10T00:40:21;101845.75;;;-5.54;76.47
80798;BME280;70202;52.238;10.680;2024-01-10T00:41:21;101938.28;;;-4.91;76.76
80798;BME280;70202;52.238;10.680;2024-01-10T00:42:22;101940.03;;;-4.92;76.58
80798;BME280;70202;52.238;10.680;2024-01-10T00:43:22;101701.06;;;-6.35;76.44
80798;BME280;70202;52.238;10.680;2024-01-10T00:44:23;101919.81;;;-5.06;76.56
80798;BME280;70202;52.238;10.680;2024-01-10T00:45:23;101945.25;;;-4.93;76.94
80798;BME280;70202;52.238;10.680;2024-01-10T00:46:24;101874.06;;;-5.36;76.96
80798;BME280;70202;52.238;10.680;2024-01-10T00:47:24;101910.56;;;-5.14;76.76
80798;BME280;70202;52.238;10.680;2024-01-10T00:48:25;101803.19;;;-5.73;76.66
80798;BME280;70202;52.238;10.680;2024-01-10T00:49:25;101908.84;;;-5.14;76.71
80798;BME280;70202;52.238;10.680;2024-01-10T00:50:26;101835.75;;;-5.59;76.07
80798;BME280;70202;52.238;10.680;2024-01-10T00:51:26;101802.81;;;-5.81;76.70
80798;BME280;70202;52.238;10.680;2024-01-10T00:52:26;101908.34;;;-5.23;76.70
80798;BME280;70202;52.238;10.680;2024-01-10T00:53:27;101941.25;;;-5.03;76.72
80798;BME280;70202;52.238;10.680;2024-01-10T00:54:27;101941.19;;;-5.05;76.83
80798;BME280;70202;52.238;10.680;2024-01-10T00:55:27;101923.84;;;-5.14;76.74
80798;BME280;70202;52.238;10.680;2024-01-10T00:56:28;101888.22;;;-5.36;76.66
80798;BME280;70202;52.238;10.680;2024-01-10T00:57:28;101930.31;;;-5.09;76.77
80798;BME280;70202;52.238;10.680;2024-01-10T00:58:29;101814.50;;;-5.77;76.49
80798;BME280;70202;52.238;10.680;2024-01-10T00:59:29;101899.25;;;-5.28;76.80
80798;BME280;70202;52.238;10.680;2024-01-10T01:00:29;101942.69;;;-5.10;76.93
80798;BME280;70202;52.238;10.680;2024-01-10T01:01:30;101922.47;;;-5.24;76.81
80798;BME280;70202;52.238;10.680;2024-01-10T01:02:30;101815.59;;;-5.90;76.54
80798;BME280;70202;52.238;10.680;2024-01-10T01:03:30;101823.34;;;-5.76;76.58
80798;BME280;70202;52.238;10.680;2024-01-10T01:04:31;101937.13;;;-5.14;76.44
80798;BME280;70202;52.238;10.680;2024-01-10T01:05:31;101938.19;;;-5.11;76.86
80798;BME280;70202;52.238;10.680;2024-01-10T01:06:32;101911.63;;;-5.29;76.71
80798;BME280;70202;52.238;10.680;2024-01-10T01:07:32;101938.13;;;-5.12;76.72
80798;BME280;70202;52.238;10.680;2024-01-10T01:08:33;101813.84;;;-5.89;76.65
80798;BME280;70202;52.238;10.680;2024-01-10T01:09:34;101810.44;;;-5.87;76.73
80798;BME280;70202;52.238;10.680;2024-01-10T01:10:34;101796.13;;;-5.90;76.63
80798;BME280;70202;52.238;10.680;2024-01-10T01:11:35;101918.41;;;-5.17;76.44
80798;BME280;70202;52.238;10.680;2024-01-10T01:12:35;101813.84;;;-5.89;76.38
80798;BME280;70202;52.238;10.680;2024-01-10T01:13:35;101926.19;;;-5.20;76.74
80798;BME280;70202;52.238;10.680;2024-01-10T01:14:36;101833.38;;;-5.71;76.49
80798;BME280;70202;52.238;10.680;2024-01-10T01:15:37;101927.03;;;-5.21;77.22
80798;BME280;70202;52.238;10.680;2024-01-10T01:16:37;101902.81;;;-5.28;76.97
80798;BME280;70202;52.238;10.680;2024-01-10T01:17:38;101855.69;;;-5.49;76.87
80798;BME280;70202;52.238;10.680;2024-01-10T01:18:38;101796.44;;;-5.84;76.67
80798;BME280;70202;52.238;10.680;2024-01-10T01:19:38;101938.53;;;-5.05;76.89
80798;BME280;70202;52.238;10.680;2024-01-10T01:20:39;101936.78;;;-5.04;76.55
80798;BME280;70202;52.238;10.680;2024-01-10T01:21:39;101855.69;;;-5.49;76.63
80798;BME280;70202;52.238;10.680;2024-01-10T01:22:39;101795.53;;;-5.85;76.84
80798;BME280;70202;52.238;10.680;2024-01-10T01:23:40;101830.19;;;-5.64;76.49
80798;BME280;70202;52.238;10.680;2024-01-10T01:24:40;101941.41;;;-5.00;76.96
80798;BME280;70202;52.238;10.680;2024-01-10T01:25:41;101934.13;;;-5.04;76.88
80798;BME280;70202;52.238;10.680;2024-01-10T01:26:41;101885.06;;;-5.29;76.83
80798;BME280;70202;52.238;10.680;2024-01-10T01:27:41;101845.31;;;-5.45;76.55
80798;BME280;70202;52.238;10.680;2024-01-10T01:28:42;101819.81;;;-5.59;76.85
80798;BME280;70202;52.238;10.680;2024-01-10T01:29:42;101929.09;;;-4.98;76.47
80798;BME280;70202;52.238;10.680;2024-01-10T01:30:42;101781.59;;;-5.81;76.77
80798;BME280;70202;52.238;10.680;2024-01-10T01:31:43;101900.72;;;-5.17;76.93
80798;BME280;70202;52.238;10.680;2024-01-10T01:32:43;101935.63;;;-5.09;76.39
80798;BME280;70202;52.238;10.680;2024-01-10T01:33:44;101930.63;;;-5.03;77.06
80798;BME280;70202;52.238;10.680;2024-01-10T01:34:44;101957.84;;;-5.07;77.05
80798;BME280;70202;52.238;10.680;2024-01-10T01:35:44;101764.59;;;-6.02;76.74
80798;BME280;70202;52.238;10.680;2024-01-10T01:36:45;101928.34;;;-5.13;77.07
80798;BME280;70202;52.238;10.680;2024-01-10T01:37:46;101822.06;;;-5.67;76.69
80798;BME280;70202;52.238;10.680;2024-01-10T01:38:46;101868.34;;;-5.44;nan
80798;BME280;70202;52.238;10.680;2024-01-10T01:39:46;101814.84;;;-5.69;76.65
80798;BME280;70202;52.238;10.680;2024-01-10T01:40:47;101939.44;;;-5.04;76.70
80798;BME280;70202;52.238;10.680;2024-01-10T01:41:47;101915.41;;;-5.23;77.32
80798;BME280;70202;52.238;10.680;2024-01-10T01:42:48;101751.22;;;-6.21;76.97
80798;BME280;70202;52.238;10.680;2024-01-10T01:43:48;101937.63;;;-5.05;77.15
80798;BME280;70202;52.238;10.680;2024-01-10T01:44:49;101730.53;;;-6.28;76.67
80798;BME280;70202;52.238;10.680;2024-01-10T01:45:51;101877.63;;;-5.36;77.03
80798;BME280;70202;52.238;10.680;2024-01-10T01:46:52;101913.38;;;-5.29;77.01
80798;BME280;70202;52.238;10.680;2024-01-10T01:47:52;101935.69;;;-5.08;76.89
80798;BME280;70202;52.238;10.680;2024-01-10T01:48:53;101805.22;;;-5.85;76.87
80798;BME280;70202;52.238;10.680;2024-01-10T01:49:53;101864.69;;;-5.64;77.07
80798;BME280;70202;52.238;10.680;2024-01-10T01:50:59;101935.63;;;-5.09;77.02
80798;BME280;70202;52.238;10.680;2024-01-10T01:52:00;101817.44;;;-5.71;76.89
80798;BME280;70202;52.238;10.680;2024-01-10T01:53:01;101745.34;;;-6.16;76.77
80798;BME280;70202;52.238;10.680;2024-01-10T01:54:03;101679.88;;;-6.51;76.78
80798;BME280;70202;52.238;10.680;2024-01-10T01:55:05;101908.28;;;-5.24;76.96
80798;BME280;70202;52.238;10.680;2024-01-10T01:56:08;101794.44;;;-5.88;76.88
80798;BME280;70202;52.238;10.680;2024-01-10T01:57:08;101908.13;;;-5.28;76.64
80798;BME280;70202;52.238;10.680;2024-01-10T01:58:10;101933.66;;;-5.13;77.02
80798;BME280;70202;52.238;10.680;2024-01-10T01:59:12;101939.78;;;-5.14;nan
80798;BME280;70202;52.238;10.680;2024-01-10T02:00:13;101939.72;;;-5.16;77.37
80798;BME280;70202;52.238;10.680;2024-01-10T02:01:14;101945.94;;;-5.15;77.17
80798;BME280;70202;52.238;10.680;2024-01-10T02:02:16;101917.00;;;-5.27;76.88
80798;BME280;70202;52.238;10.680;2024-01-10T02:03:18;101930.84;;;-5.16;76.93
80798;BME280;70202;52.238;10.680;2024-01-10T02:04:19;101717.03;;;-6.33;76.97
80798;BME280;70202;52.238;10.680;2024-01-10T02:05:20;101834.81;;;-5.78;77.02
80798;BME280;70202;52.238;10.680;2024-01-10T02:06:20;101931.69;;;-5.17;77.14
80798;BME280;70202;52.238;10.680;2024-01-10T02:07:20;101933.50;;;-5.16;77.02
80798;BME280;70202;52.238;10.680;2024-01-10T02:08:21;101885.22;;;-5.43;77.26
80798;BME280;70202;52.238;10.680;2024-01-10T02:09:23;101799.56;;;-5.93;77.17
80798;BME280;70202;52.238;10.680;2024-01-10T02:10:23;101878.84;;;-5.47;77.22
80798;BME280;70202;52.238;10.680;2024-01-10T02:11:24;101797.63;;;-5.95;76.99
80798;BME280;70202;52.238;10.680;2024-01-10T02:12:25;101936.16;;;-5.16;77.01
80798;BME280;70202;52.238;10.680;2024-01-10T02:13:25;101804.03;;;-5.92;77.24
80798;BME280;70202;52.238;10.680;2024-01-10T02:14:25;101936.06;;;-5.18;76.96
80798;BME280;70202;52.238;10.680;2024-01-10T02:15:26;101912.34;;;-5.31;77.28
80798;BME280;70202;52.238;10.680;2024-01-10T02:16:27;101699.28;;;-6.52;76.78
80798;BME280;70202;52.238;10.680;2024-01-10T02:17:27;101862.94;;;-5.63;76.94
80798;BME280;70202;52.238;10.680;2024-01-10T02:18:27;101932.25;;;-5.23;76.78
80798;BME280;70202;52.238;10.680;2024-01-10T02:19:28;101884.88;;;-5.49;76.68
80798;BME280;70202;52.238;10.680;2024-01-10T02:20:29;101936.59;;;-5.25;76.68
80798;BME280;70202;52.238;10.680;2024-01-10T02:21:29;101843.91;;;-5.72;77.14
80798;BME280;70202;52.238;10.680;2024-01-10T02:22:30;101918.44;;;-5.34;77.45
80798;BME280;70202;52.238;10.680;2024-01-10T02:23:30;101835.97;;;-5.89;77.16
80798;BME280;70202;52.238;10.680;2024-01-10T02:24:31;101925.97;;;-5.25;77.06
80798;BME280;70202;52.238;10.680;2024-01-10T02:25:31;101926.94;;;-5.23;77.56
80798;BME280;70202;52.238;10.680;2024-01-10T02:26:31;101797.41;;;-6.00;77.01
80798;BME280;70202;52.238;10.680;2024-01-10T02:27:34;101929.59;;;-5.23;77.47
80798;BME280;70202;52.238;10.680;2024-01-10T02:28:34;101834.09;;;-5.73;77.25
80798;BME280;70202;52.238;10.680;2024-01-10T02:29:34;101860.75;;;-5.54;77.31
80798;BME280;70202;52.238;10.680;2024-01-10T02:30:36;101790.47;;;-5.98;76.97
80798;BME280;70202;52.238;10.680;2024-01-10T02:31:36;101798.72;;;-5.92;76.83
80798;BME280;70202;52.238;10.680;2024-01-10T02:32:37;101839.34;;;-5.75;77.10
80798;BME280;70202;52.238;10.680;2024-01-10T02:33:38;101917.09;;;-5.25;77.27
80798;BME280;70202;52.238;10.680;2024-01-10T02:34:38;101844.22;;;-5.66;77.17
80798;BME280;70202;52.238;10.680;2024-01-10T02:35:38;101781.44;;;-6.01;77.05
80798;BME280;70202;52.238;10.680;2024-01-10T02:36:39;101914.50;;;-5.24;76.99
80798;BME280;70202;52.238;10.680;2024-01-10T02:37:39;101809.69;;;-5.84;76.76
80798;BME280;70202;52.238;10.680;2024-01-10T02:38:39;101816.63;;;-5.86;77.00
80798;BME280;70202;52.238;10.680;2024-01-10T02:39:40;101739.66;;;-6.23;76.86
80798;BME280;70202;52.238;10.680;2024-01-10T02:40:40;101884.53;;;-5.39;77.07
80798;BME280;70202;52.238;10.680;2024-01-10T02:41:41;101916.19;;;-5.26;77.54
80798;BME280;70202;52.238;10.680;2024-01-10T02:42:42;101865.16;;;-5.55;77.34
80798;BME280;70202;52.238;10.680;2024-01-10T02:43:43;101910.53;;;-5.32;76.98
80798;BME280;70202;52.238;10.680;2024-01-10T02:44:43;101903.72;;;-5.27;77.00
80798;BME280;70202;52.238;10.680;2024-01-10T02:45:44;101819.22;;;-5.88;76.72
80798;BME280;70202;52.238;10.680;2024-01-10T02:46:44;101905.41;;;-5.29;77.25
80798;BME280;70202;52.238;10.680;2024-01-10T02:47:45;101886.34;;;-5.38;77.02
80798;BME280;70202;52.238;10.680;2024-01-10T02:48:46;101846.25;;;-5.61;77.23
80798;BME280;70202;52.238;10.680;2024-01-10T02:49:46;101863.81;;;-5.46;76.95
80798;BME280;70202;52.238;10.680;2024-01-10T02:50:46;101786.31;;;-5.91;77.13
80798;BME280;70202;52.238;10.680;2024-01-10T02:51:48;101890.38;;;-5.29;77.03
80798;BME280;70202;52.238;10.680;2024-01-10T02:52:48;101796.84;;;-5.94;77.12
80798;BME280;70202;52.238;10.680;2024-01-10T02:53:50;101852.97;;;-5.51;77.16
80798;BME280;70202;52.238;10.680;2024-01-10T02:54:50;101886.66;;;-5.32;77.21
80798;BME280;70202;52.238;10.680;2024-01-10T02:55:51;101895.91;;;-5.24;76.99
80798;BME280;70202;52.238;10.680;2024-01-10T02:56:51;101838.56;;;-5.56;77.00
80798;BME280;70202;52.238;10.680;2024-01-10T02:57:52;101863.97;;;-5.43;76.87
80798;BME280;70202;52.238;10.680;2024-01-10T02:58:52;101773.47;;;-6.01;77.33
80798;BME280;70202;52.238;10.680;2024-01-10T02:59:52;101881.28;;;-5.34;77.15
80798;BME280;70202;52.238;10.680;2024-01-10T03:00:53;101899.25;;;-5.28;77.13
80798;BME280;70202;52.238;10.680;2024-01-10T03:01:53;101895.53;;;-5.32;77.26
80798;BME280;70202;52.238;10.680;2024-01-10T03:02:54;101859.13;;;-5.52;77.10
80798;BME280;70202;52.238;10.680;2024-01-10T03:03:54;101879.75;;;-5.46;77.00
80798;BME280;70202;52.238;10.680;2024-01-10T03:04:54;101757.66;;;-6.16;76.94
80798;BME280;70202;52.238;10.680;2024-01-10T03:05:55;101906.97;;;-5.33;77.13
80798;BME280;70202;52.238;10.680;2024-01-10T03:06:55;101735.91;;;-6.27;77.03
80798;BME280;70202;52.238;10.680;2024-01-10T03:07:56;101851.31;;;-5.65;76.73
80798;BME280;70202;52.238;10.680;2024-01-10T03:08:56;101803.84;;;-5.95;76.90
80798;BME280;70202;52.238;10.680;2024-01-10T03:09:57;101680.09;;;-6.64;76.84
80798;BME280;70202;52.238;10.680;2024-01-10T03:10:57;101747.25;;;-6.30;76.87
80798;BME280;70202;52.238;10.680;2024-01-10T03:11:57;101725.56;;;-6.39;76.78
80798;BME280;70202;52.238;10.680;2024-01-10T03:12:58;101784.69;;;-6.07;76.47
80798;BME280;70202;52.238;10.680;2024-01-10T03:14:09;101899.00;;;-5.50;76.81
80798;BME280;70202;52.238;10.680;2024-01-10T03:15:09;101753.47;;;-6.29;76.61
80798;BME280;70202;52.238;10.680;2024-01-10T03:16:10;101761.19;;;-6.34;76.61
80798;BME280;70202;52.238;10.680;2024-01-10T03:17:10;101768.81;;;-6.23;76.56
80798;BME280;70202;52.238;10.680;2024-01-10T03:18:11;101907.34;;;-5.43;76.85
80798;BME280;70202;52.238;10.680;2024-01-10T03:19:11;101862.47;;;-5.72;76.70
80798;BME280;70202;52.238;10.680;2024-01-10T03:20:11;101890.19;;;-5.49;76.43
80798;BME280;70202;52.238;10.680;2024-01-10T03:21:12;101898.22;;;-5.48;76.36
80798;BME280;70202;52.238;10.680;2024-01-10T03:22:12;101806.69;;;-6.08;76.69
80798;BME280;70202;52.238;10.680;2024-01-10T03:23:13;101769.94;;;-6.18;77.02
80798;BME280;70202;52.238;10.680;2024-01-10T03:24:13;101905.69;;;-5.41;76.69
80798;BME280;70202;52.238;10.680;2024-01-10T03:25:13;101890.97;;;-5.52;76.58
80798;BME280;70202;52.238;10.680;2024-01-10T03:26:14;101777.16;;;-6.16;76.38
80798;BME280;70202;52.238;10.680;2024-01-10T03:27:14;101867.25;;;-5.65;76.66
80798;BME280;70202;52.238;10.680;2024-01-10T03:28:18;101884.81;;;-5.51;76.79
80798;BME280;70202;52.238;10.680;2024-01-10T03:29:18;101903.13;;;-5.39;76.29
80798;BME280;70202;52.238;10.680;2024-01-10T03:30:18;101904.84;;;-5.40;76.70
80798;BME280;70202;52.238;10.680;2024-01-10T03:31:20;101917.13;;;-5.42;76.47
80798;BME280;70202;52.238;10.680;2024-01-10T03:32:20;101803.72;;;-5.98;76.23
80798;BME280;70202;52.238;10.680;2024-01-10T03:33:21;101903.78;;;-5.43;76.33
80798;BME280;70202;52.238;10.680;2024-01-10T03:34:21;101757.44;;;-6.21;76.34
80798;BME280;70202;52.238;10.680;2024-01-10T03:35:22;101849.28;;;-5.71;76.50
80798;BME280;70202;52.238;10.680;2024-01-10T03:36:22;101880.41;;;-5.50;76.67
80798;BME280;70202;52.238;10.680;2024-01-10T03:37:23;101874.78;;;-5.57;76.67
80798;BME280;70202;52.238;10.680;2024-01-10T03:38:23;101847.53;;;-5.70;76.83
80798;BME280;70202;52.238;10.680;2024-01-10T03:39:23;101879.28;;;-5.56;76.66
80798;BME280;70202;52.238;10.680;2024-01-10T03:40:24;101764.56;;;-6.20;76.74
80798;BME280;70202;52.238;10.680;2024-01-10T03:41:24;101853.84;;;-5.68;76.82
80798;BME280;70202;52.238;10.680;2024-01-10T03:42:25;101658.25;;;-6.76;76.22
80798;BME280;70202;52.238;10.680;2024-01-10T03:43:25;101852.09;;;-5.68;76.79
80798;BME280;70202;52.238;10.680;2024-01-10T03:44:26;101892.00;;;-5.48;76.88
80798;BME280;70202;52.238;10.680;2024-01-10T03:45:27;101757.34;;;-6.22;76.61
80798;BME280;70202;52.238;10.680;2024-01-10T03:46:28;101778.19;;;-6.12;76.69
80798;BME280;70202;52.238;10.680;2024-01-10T03:47:29;101874.03;;;-5.54;76.90
80798;BME280;70202;52.238;10.680;2024-01-10T03:48:29;101727.38;;;-6.38;76.92
80798;BME280;70202;52.238;10.680;2024-01-10T03:49:29;101770.25;;;-6.12;77.21
80798;BME280;70202;52.238;10.680;2024-01-10T03:50:30;101889.59;;;-5.44;77.36
80798;BME280;70202;52.238;10.680;2024-01-10T03:51:30;101768.38;;;-6.15;77.14
80798;BME280;70202;52.238;10.680;2024-01-10T03:52:30;101879.56;;;-5.49;77.28
80798;BME280;70202;52.238;10.680;2024-01-10T03:53:31;101775.72;;;-6.09;77.24
80798;BME280;70202;52.238;10.680;2024-01-10T03:54:31;101887.94;;;-5.42;77.42
80798;BME280;70202;52.238;10.680;2024-01-10T03:55:32;101881.56;;;-5.45;77.54
80798;BME280;70202;52.238;10.680;2024-01-10T03:56:32;101810.59;;;-5.84;77.24
80798;BME280;70202;52.238;10.680;2024-01-10T03:57:32;101836.34;;;-5.65;77.21
80798;BME280;70202;52.238;10.680;2024-01-10T03:58:33;101878.47;;;-5.37;77.23
80798;BME280;70202;52.238;10.680;2024-01-10T03:59:33;101882.91;;;-5.36;77.32
80798;BME280;70202;52.238;10.680;2024-01-10T04:00:33;101884.78;;;-5.35;77.33
80798;BME280;70202;52.238;10.680;2024-01-10T04:01:34;101741.84;;;-6.15;77.00
80798;BME280;70202;52.238;10.680;2024-01-10T04:02:37;101894.56;;;-5.34;77.46
80798;BME280;70202;52.238;10.680;2024-01-10T04:03:40;101882.19;;;-5.33;77.57
80798;BME280;70202;52.238;10.680;2024-01-10T04:04:42;101750.78;;;-6.13;76.76
80798;BME280;70202;52.238;10.680;2024-01-10T04:05:42;101881.19;;;-5.35;77.28
80798;BME280;70202;52.238;10.680;2024-01-10T04:06:43;101826.47;;;-5.67;77.32
80798;BME280;70202;52.238;10.680;2024-01-10T04:07:43;101878.38;;;-5.38;77.07
80798;BME280;70202;52.238;10.680;2024-01-10T04:08:43;101776.88;;;-6.04;77.39
80798;BME280;70202;52.238;10.680;2024-01-10T04:09:44;101835.28;;;-5.68;77.36
80798;BME280;70202;52.238;10.680;2024-01-10T04:10:44;101883.53;;;-5.41;77.35
80798;BME280;70202;52.238;10.680;2024-01-10T04:11:45;101771.56;;;-6.04;77.09
80798;BME280;70202;52.238;10.680;2024-01-10T04:12:45;101757.34;;;-6.22;77.41
80798;BME280;70202;52.238;10.680;2024-01-10T04:13:46;101846.97;;;-5.65;77.29
80798;BME280;70202;52.238;10.680;2024-01-10T04:14:46;101843.13;;;-5.70;76.95
80798;BME280;70202;52.238;10.680;2024-01-10T04:15:47;101866.50;;;-5.63;77.54
80798;BME280;70202;52.238;10.680;2024-01-10T04:16:47;101886.63;;;-5.50;77.31
80798;BME280;70202;52.238;10.680;2024-01-10T04:17:48;101817.41;;;-5.89;77.24
80798;BME280;70202;52.238;10.680;2024-01-10T04:18:49;101870.25;;;-5.59;77.31
80798;BME280;70202;52.238;10.680;2024-01-10T04:19:49;101745.63;;;-6.27;76.86
80798;BME280;70202;52.238;10.680;2024-01-10T04:20:49;101744.72;;;-6.28;77.35
80798;BME280;70202;52.238;10.680;2024-01-10T04:21:50;101731.78;;;-6.38;77.69
80798;BME280;70202;52.238;10.680;2024-01-10T04:22:50;101872.28;;;-5.54;77.21
80798;BME280;70202;52.238;10.680;2024-01-10T04:23:51;101877.59;;;-5.54;77.21
80798;BME280;70202;52.238;10.680;2024-01-10T04:24:52;101711.44;;;-6.56;77.18
80798;BME280;70202;52.238;10.680;2024-01-10T04:25:52;101773.88;;;-6.28;76.99
80798;BME280;70202;52.238;10.680;2024-01-10T04:26:52;101761.81;;;-6.21;77.18
80798;BME280;70202;52.238;10.680;2024-01-10T04:27:53;101871.88;;;-5.61;77.51
80798;BME280;70202;52.238;10.680;2024-01-10T04:28:53;101835.78;;;-5.75;77.38
80798;BME280;70202;52.238;10.680;2024-01-10T04:29:54;101853.84;;;-5.68;77.24
80798;BME280;70202;52.238;10.680;2024-01-10T04:30:54;101882.06;;;-5.53;77.32
80798;BME280;70202;52.238;10.680;2024-01-10T04:31:54;101794.75;;;-6.00;77.12
80798;BME280;70202;52.238;10.680;2024-01-10T04:32:55;101861.28;;;-5.61;77.23
80798;BME280;70202;52.238;10.680;2024-01-10T04:33:55;101881.94;;;-5.56;77.34
80798;BME280;70202;52.238;10.680;2024-01-10T04:34:55;101701.50;;;-6.60;77.24
80798;BME280;70202;52.238;10.680;2024-01-10T04:35:56;101840.91;;;-5.79;77.27
80798;BME280;70202;52.238;10.680;2024-01-10T04:36:56;101756.78;;;-6.33;77.26
80798;BME280;70202;52.238;10.680;2024-01-10T04:37:57;101888.97;;;-5.56;76.98
80798;BME280;70202;52.238;10.680;2024-01-10T04:38:58;101902.25;;;-5.56;77.29
80798;BME280;70202;52.238;10.680;2024-01-10T04:39:58;101639.59;;;-6.96;77.13
80798;BME280;70202;52.238;10.680;2024-01-10T04:40:59;101843.16;;;-5.86;77.52
80798;BME280;70202;52.238;10.680;2024-01-10T04:41:59;101854.84;;;-5.83;76.96
80798;BME280;70202;52.238;10.680;2024-01-10T04:43:00;101788.16;;;-6.24;77.02
80798;BME280;70202;52.238;10.680;2024-01-10T04:44:00;101771.44;;;-6.23;77.01
80798;BME280;70202;52.238;10.680;2024-01-10T04:45:00;101859.72;;;-5.74;77.48
80798;BME280;70202;52.238;10.680;2024-01-10T04:46:01;101891.38;;;-5.61;77.12
80798;BME280;70202;52.238;10.680;2024-01-10T04:47:01;101756.78;;;-6.33;77.40
80798;BME280;70202;52.238;10.680;2024-01-10T04:48:02;101839.59;;;-5.87;77.23
80798;BME280;70202;52.238;10.680;2024-01-10T04:49:02;101742.50;;;-6.37;77.21
80798;BME280;70202;52.238;10.680;2024-01-10T04:50:03;101877.28;;;-5.60;77.23
80798;BME280;70202;52.238;10.680;2024-01-10T04:51:04;101752.16;;;-6.37;77.35
80798;BME280;70202;52.238;10.680;2024-01-10T04:52:04;101829.84;;;-5.88;77.20
80798;BME280;70202;52.238;10.680;2024-01-10T04:53:05;101796.63;;;-6.15;77.28
80798;BME280;70202;52.238;10.680;2024-01-10T04:54:05;101859.06;;;-5.70;77.66
80798;BME280;70202;52.238;10.680;2024-01-10T04:55:06;101855.50;;;-5.70;77.47
80798;BME280;70202;52.238;10.680;2024-01-10T04:56:08;101776.38;;;-6.13;77.50
80798;BME280;70202;52.238;10.680;2024-01-10T04:57:08;101824.53;;;-5.88;77.46
80798;BME280;70202;52.238;10.680;2024-01-10T04:58:08;101726.84;;;-6.48;77.43
80798;BME280;70202;52.238;10.680;2024-01-10T04:59:09;101751.81;;;-6.27;77.45
80798;BME280;70202;52.238;10.680;2024-01-10T05:00:09;101767.91;;;-6.24;77.17
80798;BME280;70202;52.238;10.680;2024-01-10T05:01:10;101867.59;;;-5.59;77.67
80798;BME280;70202;52.238;10.680;2024-01-10T05:02:10;101864.75;;;-5.62;77.25
80798;BME280;70202;52.238;10.680;2024-01-10T05:03:11;101750.91;;;-6.27;77.25
80798;BME280;70202;52.238;10.680;2024-01-10T05:04:12;101847.78;;;-5.66;77.89
80798;BME280;70202;52.238;10.680;2024-01-10T05:05:12;101862.13;;;-5.62;77.21
80798;BME280;70202;52.238;10.680;2024-01-10T05:06:12;101729.81;;;-6.42;77.32
80798;BME280;70202;52.238;10.680;2024-01-10T05:07:13;101758.75;;;-6.29;77.38
80798;BME280;70202;52.238;10.680;2024-01-10T05:08:13;101863.91;;;-5.61;77.56
80798;BME280;70202;52.238;10.680;2024-01-10T05:09:14;101870.06;;;-5.62;77.41
80798;BME280;70202;52.238;10.680;2024-01-10T05:10:15;101852.78;;;-5.72;77.40
80798;BME280;70202;52.238;10.680;2024-01-10T05:11:17;101783.59;;;-6.11;77.32
80798;BME280;70202;52.238;10.680;2024-01-10T05:12:17;101872.66;;;-5.64;77.11
80798;BME280;70202;52.238;10.680;2024-01-10T05:13:18;101719.72;;;-6.49;77.27